CYPE - Peace River Airport

Pirep is a free, collaborative database of all public and private airports located within the United States. All pilots are welcome to contribute, edit, and improve any airport they have local knowledge about, no registration required.
Are you familiar with this airport? Help out other pilots by adding your local knowledge.
Uploaded photos will be licensed under a CC BY-SA 4.0 license. Please only upload photos you have the rights to use.
Tags
Public
Undocu­mented
METAR / TAF
Edit Tags
Food
Camping
Lodging
Car Rental
Bicycles
Swimming
Golfing
Fishing
Hot Springs
Museum
Flying Clubs
Airpark
Upcoming Events
No upcoming events. Is anything happening here soon?
*
*
*

Where exactly on/near the airport is this event taking place?

Is there a webpage with more information for this event?

Who should be contacted for more information?

What is this event all about?

Repeat every
Description
Transient Parking
Fuel Location
Landing & Tie-down Fees
Crew Car Availability
Flying Clubs
WiFi Access
Airport Statistics
Location: Peace River, Alberta
Elevation: 1,873ft
Runway 04/22: 5,000ft
Warning: This airport was imported from a non-authoritative source. It's public/private status may not be accurate.
Access: Open to the public
Current Weather — MVFR
  • Weather data is strictly informational and not for flight planning purposes.
  • METAR
    2024-07-21 21:00:00 MDT
    Ceiling Wind Temperature Dewpoint Weather Visbility
    Sky clear 30° @ 5kt 77°F 59°F Haze 3SM
    Raw: CYPE 220300Z AUTO 03005KT 3SM HZ CLR 25/15 A3008 RMK SLP190 DENSITY ALT 3300FT
  • TAF
    2024-07-21 19:00:00 MDT – 2024-07-22 07:00:00 MDT
    Ceiling Wind Weather Visbility
    Sky clear 70° @ 12kt, gusts 22kt Smoke 3SM
    Clouds: Few @ 4,000ft
    Raw: TAF CYPE 220040Z 2201/2213 07012G22KT 3SM FU FEW040 TEMPO 2201/2213 6SM FU PROB30 2203/2212 2SM FU RMK FCST BASED ON AUTO OBS. NXT FCST BY 220700Z
  • TAF
    2024-07-21 19:00:00 MDT – 2024-07-22 07:00:00 MDT
    Ceiling Wind Weather Visbility
    Sky clear ° @ kt Smoke 6SM
    Raw: TAF CYPE 220040Z 2201/2213 07012G22KT 3SM FU FEW040 TEMPO 2201/2213 6SM FU PROB30 2203/2212 2SM FU RMK FCST BASED ON AUTO OBS. NXT FCST BY 220700Z
  • TAF
    2024-07-21 21:00:00 MDT – 2024-07-22 06:00:00 MDT
    Ceiling Wind Weather Visbility
    Sky clear ° @ kt Smoke 2SM
    Raw: TAF CYPE 220040Z 2201/2213 07012G22KT 3SM FU FEW040 TEMPO 2201/2213 6SM FU PROB30 2203/2212 2SM FU RMK FCST BASED ON AUTO OBS. NXT FCST BY 220700Z
Click/tap to add an annotation marker to the map
Airport Webcams
No webcams added yet.
Direct links to live image URLs will be displayed inline on this page. URLs to separate webpages will be linked to.
URL:
Direct links to live image URLs will be displayed inline on this page. URLs to separate webpages will be linked to.
URL:
Comments
Leave a comment What was your experience like at this airport?